Time;durP1;ratioP1;P1;durP2;ratioP2;P2;SDS_P1;SDS_P2;PMS_P1;PMS_P2;Temp;Humidity;BMP_temperature;BMP_pressure;BME280_temperature;BME280_humidity;BME280_pressure;Samples;Min_cycle;Max_cycle;Signal;HPM_P1;HPM_P2
2022/08/02 00:00:50;;;;;;;3.47;1.88;;;;;;;16.30;62.05;101815.38;5053702;28;20090;-70
2022/08/02 00:03:15;;;;;;;4.80;2.10;;;;;;;16.25;61.36;101814.66;5071275;28;20016;-70
2022/08/02 00:05:40;;;;;;;4.00;1.90;;;;;;;16.11;60.30;101809.84;5070320;28;20031;-69
2022/08/02 00:08:05;;;;;;;4.00;1.77;;;;;;;16.11;61.11;101826.47;5065557;28;20566;-70
2022/08/02 00:10:32;;;;;;;7.07;2.22;;;;;;;16.01;60.90;101813.66;5057389;28;20056;-70
2022/08/02 00:12:57;;;;;;;3.53;1.77;;;;;;;16.08;62.53;101810.78;5068358;28;20035;-69
2022/08/02 00:15:22;;;;;;;5.32;2.58;;;;;;;16.10;62.20;101808.97;5071165;28;20099;-69
2022/08/02 00:17:48;;;;;;;4.85;2.05;;;;;;;16.07;62.65;101805.59;5065609;28;20017;-70
2022/08/02 00:20:13;;;;;;;6.82;2.38;;;;;;;16.07;61.97;101813.47;5061207;28;20057;-70
2022/08/02 00:22:38;;;;;;;5.72;1.75;;;;;;;16.11;61.57;101805.44;5064823;28;20071;-70
2022/08/02 00:25:04;;;;;;;5.75;2.03;;;;;;;16.06;60.59;101823.16;5054861;28;20391;-70
2022/08/02 00:27:29;;;;;;;3.50;1.60;;;;;;;16.09;60.81;101820.41;5066234;28;20458;-69
2022/08/02 00:29:55;;;;;;;5.10;1.83;;;;;;;16.10;60.62;101819.50;5061663;28;20489;-69
2022/08/02 00:32:21;;;;;;;4.60;1.75;;;;;;;16.09;60.32;101828.31;5060690;28;20013;-70
2022/08/02 00:34:47;;;;;;;6.75;2.15;;;;;;;16.05;60.04;101829.28;5060472;28;20111;-70
2022/08/02 00:37:12;;;;;;;3.67;1.90;;;;;;;16.04;61.00;101819.69;5059169;28;20112;-69
2022/08/02 00:39:38;;;;;;;5.70;1.85;;;;;;;16.05;60.57;101821.41;5061704;28;20063;-70
2022/08/02 00:42:03;;;;;;;3.72;1.73;;;;;;;16.06;60.39;101810.00;5063733;28;20029;-70
2022/08/02 00:44:28;;;;;;;4.30;1.70;;;;;;;16.02;59.37;101820.63;5052959;28;20027;-70
2022/08/02 00:46:54;;;;;;;4.32;1.88;;;;;;;15.99;59.40;101824.25;5064494;28;20025;-69
2022/08/02 00:49:19;;;;;;;2.63;1.80;;;;;;;16.05;60.02;101816.13;5056735;28;20028;-70
2022/08/02 00:51:44;;;;;;;3.53;1.70;;;;;;;16.04;60.14;101809.16;5057510;28;20437;-69
2022/08/02 00:54:10;;;;;;;3.75;1.98;;;;;;;16.09;59.60;101807.28;5068221;28;20029;-70
2022/08/02 00:56:35;;;;;;;3.00;1.35;;;;;;;16.08;58.56;101797.63;5070094;28;20025;-69
2022/08/02 00:59:01;;;;;;;3.83;1.70;;;;;;;16.08;60.16;101795.00;5059729;28;20025;-70
2022/08/02 01:01:38;;;;;;;5.53;1.67;;;;;;;16.07;59.93;101790.66;5058512;28;20503;-70
2022/08/02 01:04:08;;;;;;;3.75;1.70;;;;;;;16.06;60.79;101781.06;5070600;28;20021;-70
2022/08/02 01:06:35;;;;;;;3.35;1.50;;;;;;;16.03;60.56;101783.78;5070353;28;20056;-70
2022/08/02 01:09:01;;;;;;;4.25;1.55;;;;;;;15.98;60.26;101780.41;5051933;28;20481;-70
2022/08/02 01:11:28;;;;;;;3.28;1.60;;;;;;;15.94;60.23;101783.22;5058311;28;20067;-70
2022/08/02 01:14:03;;;;;;;3.08;1.92;;;;;;;15.88;61.19;101789.50;5060922;28;20029;-70
2022/08/02 01:16:32;;;;;;;4.00;1.90;;;;;;;15.87;60.92;101788.66;5053210;28;20370;-70
2022/08/02 01:19:17;;;;;;;5.82;1.90;;;;;;;15.90;60.32;101790.34;5053332;28;20025;-70
2022/08/02 01:21:54;;;;;;;3.80;1.90;;;;;;;15.93;60.89;101795.50;5053795;28;20033;-70
2022/08/02 01:24:34;;;;;;;6.75;2.05;;;;;;;15.87;61.32;101788.66;5053344;28;20036;-70
2022/08/02 01:27:27;;;;;;;4.47;1.90;;;;;;;15.89;60.24;101799.09;5053707;28;20338;-70
2022/08/02 01:29:58;;;;;;;3.30;1.60;;;;;;;15.89;61.53;101799.09;5050106;28;20029;-70
2022/08/02 01:32:28;;;;;;;5.10;1.77;;;;;;;15.91;60.24;101802.56;5052851;28;20059;-70
2022/08/02 01:35:10;;;;;;;5.47;1.80;;;;;;;15.97;61.83;101801.53;5053558;28;20025;-70
2022/08/02 01:38:03;;;;;;;6.35;1.98;;;;;;;15.99;61.16;101790.06;5052736;28;20032;-70
2022/08/02 01:40:31;;;;;;;6.95;2.55;;;;;;;15.99;61.21;101786.53;5052076;28;20025;-70
2022/08/02 01:42:58;;;;;;;5.50;1.98;;;;;;;15.97;61.06;101783.13;5039503;28;20475;-70
2022/08/02 01:45:25;;;;;;;5.47;2.42;;;;;;;15.94;61.50;101786.69;5052753;28;20091;-70
2022/08/02 01:47:52;;;;;;;7.50;2.25;;;;;;;15.88;61.59;101785.09;5053049;28;20115;-70
2022/08/02 01:50:24;;;;;;;3.83;1.88;;;;;;;15.82;61.35;101777.41;5051505;28;20021;-70
2022/08/02 01:52:54;;;;;;;5.40;2.00;;;;;;;15.74;62.82;101776.78;5052181;28;20064;-70
2022/08/02 01:55:26;;;;;;;4.32;1.83;;;;;;;15.74;63.15;101775.94;5053367;28;20021;-70
2022/08/02 01:57:55;;;;;;;5.10;2.22;;;;;;;15.71;62.68;101769.00;5052318;28;20029;-70
2022/08/02 02:00:24;;;;;;;6.63;2.28;;;;;;;15.67;61.91;101770.00;5051787;28;20029;-70
2022/08/02 02:02:52;;;;;;;5.55;1.90;;;;;;;15.70;63.72;101771.69;5052957;28;20029;-70
2022/08/02 02:05:23;;;;;;;5.15;1.92;;;;;;;15.67;63.36;101768.22;5052500;28;20021;-70
2022/08/02 02:07:52;;;;;;;5.15;2.22;;;;;;;15.60;63.79;101756.16;5052832;28;20029;-70
2022/08/02 02:10:23;;;;;;;5.85;2.35;;;;;;;15.63;64.62;101758.69;5052133;28;20396;-70
2022/08/02 02:12:52;;;;;;;6.47;1.90;;;;;;;15.62;64.34;101763.97;5051389;28;20062;-70
2022/08/02 02:15:20;;;;;;;5.43;1.90;;;;;;;15.64;65.07;101763.03;5053143;28;20029;-70
2022/08/02 02:17:48;;;;;;;8.45;2.53;;;;;;;15.56;64.78;101754.50;5051769;28;20108;-70
2022/08/02 02:20:16;;;;;;;5.05;2.17;;;;;;;15.60;65.39;101756.16;5050828;28;20021;-70
2022/08/02 02:22:42;;;;;;;5.20;2.10;;;;;;;15.56;65.33;101735.25;5051743;28;20029;-70
2022/08/02 02:25:08;;;;;;;7.07;2.35;;;;;;;15.58;65.34;101744.81;5052483;28;20032;-70
2022/08/02 02:27:36;;;;;;;4.50;2.00;;;;;;;15.55;65.99;101731.75;5051922;28;20029;-70
2022/08/02 02:30:02;;;;;;;7.95;2.20;;;;;;;15.53;65.71;101732.69;5051273;28;20024;-70
2022/08/02 02:32:29;;;;;;;4.70;1.80;;;;;;;15.49;66.40;101734.56;5052061;28;20041;-70
2022/08/02 02:34:55;;;;;;;5.68;2.40;;;;;;;15.45;65.79;101727.69;5051589;28;20028;-70
2022/08/02 02:37:22;;;;;;;6.38;2.00;;;;;;;15.41;66.93;101739.19;5052456;28;20021;-69
2022/08/02 02:39:53;;;;;;;5.35;2.67;;;;;;;15.36;66.91;101734.06;5050126;28;20021;-70
2022/08/02 02:42:23;;;;;;;4.60;2.40;;;;;;;15.31;67.01;101737.75;5052209;28;20025;-70
2022/08/02 02:44:50;;;;;;;5.05;2.10;;;;;;;15.20;67.37;101736.28;5052564;28;20036;-70
2022/08/02 02:47:18;;;;;;;6.95;2.10;;;;;;;15.13;67.97;101736.50;5051414;28;20056;-70
2022/08/02 02:49:47;;;;;;;5.65;2.38;;;;;;;15.04;67.99;101740.25;5051194;28;20029;-70
2022/08/02 02:52:15;;;;;;;5.20;2.10;;;;;;;15.01;68.57;101740.34;5051977;28;20021;-70
2022/08/02 02:54:41;;;;;;;7.03;2.53;;;;;;;14.96;69.90;101735.19;5051356;28;20460;-70
2022/08/02 02:57:07;;;;;;;6.00;2.28;;;;;;;14.85;69.18;101739.03;5052123;28;20099;-70
2022/08/02 02:59:38;;;;;;;5.20;2.08;;;;;;;14.88;70.02;101750.31;5051052;28;20214;-70
2022/08/02 03:02:04;;;;;;;3.75;2.03;;;;;;;14.77;70.45;101741.84;5051393;28;20385;-69
2022/08/02 03:04:31;;;;;;;6.20;2.13;;;;;;;14.72;70.66;101739.34;5051939;28;20032;-70
2022/08/02 03:06:56;;;;;;;3.90;2.15;;;;;;;14.70;70.49;101735.91;5051494;28;20477;-70
2022/08/02 03:09:22;;;;;;;4.38;2.40;;;;;;;14.68;70.95;101728.97;5049684;28;20037;-70
2022/08/02 03:11:47;;;;;;;5.57;2.47;;;;;;;14.65;71.29;101727.28;5051650;28;20170;-70
2022/08/02 03:14:13;;;;;;;5.38;2.70;;;;;;;14.68;71.98;101726.34;5051714;28;20029;-70
2022/08/02 03:16:56;;;;;;;4.72;2.42;;;;;;;14.69;70.71;101728.06;5051156;28;20013;-70
2022/08/02 03:19:22;;;;;;;4.65;2.20;;;;;;;14.70;71.34;101725.41;5050678;28;20036;-70
2022/08/02 03:21:49;;;;;;;5.68;2.38;;;;;;;14.67;71.23;101733.34;5050699;28;20025;-69
2022/08/02 03:24:14;;;;;;;6.63;2.55;;;;;;;14.69;71.33;101722.81;5050523;28;20029;-70
2022/08/02 03:26:40;;;;;;;4.95;2.35;;;;;;;14.65;71.05;101726.41;5051575;28;20465;-70
2022/08/02 03:29:06;;;;;;;6.18;2.42;;;;;;;14.62;70.98;101735.25;5049902;28;20021;-70
2022/08/02 03:31:31;;;;;;;5.43;2.63;;;;;;;14.61;71.39;101736.13;5050248;28;20037;-69
2022/08/02 03:33:58;;;;;;;5.78;2.95;;;;;;;14.57;71.36;101745.00;5050820;28;20025;-69
2022/08/02 03:36:27;;;;;;;5.50;2.90;;;;;;;14.53;71.11;101743.34;5050906;28;20029;-69
2022/08/02 03:38:54;;;;;;;5.53;2.70;;;;;;;14.50;71.94;101728.53;5050524;28;20472;-70
2022/08/02 03:41:21;;;;;;;5.57;3.00;;;;;;;14.51;73.14;101721.53;5050683;28;20500;-70
2022/08/02 03:43:48;;;;;;;6.95;2.88;;;;;;;14.47;72.58;101717.22;5050429;28;20116;-69
2022/08/02 03:46:16;;;;;;;8.90;3.22;;;;;;;14.47;72.62;101712.00;5050692;28;20029;-70
2022/08/02 03:48:41;;;;;;;7.20;2.70;;;;;;;14.44;72.98;101704.19;5051312;28;20072;-70
2022/08/02 03:51:07;;;;;;;5.25;3.05;;;;;;;14.46;73.51;101711.13;5047995;28;20480;-70
2022/08/02 03:53:34;;;;;;;7.68;3.13;;;;;;;14.46;73.28;101711.13;5051475;28;20122;-70
2022/08/02 03:55:59;;;;;;;8.27;3.28;;;;;;;14.49;73.60;101707.56;5051255;28;20151;-69
2022/08/02 03:58:25;;;;;;;7.22;3.13;;;;;;;14.50;73.60;101702.31;5049786;28;20650;-69
2022/08/02 04:00:52;;;;;;;6.50;3.67;;;;;;;14.53;73.32;101706.63;5049460;28;20021;-69
2022/08/02 04:03:17;;;;;;;6.30;3.10;;;;;;;14.55;74.03;101702.19;5049843;28;20112;-69
2022/08/02 04:05:43;;;;;;;4.60;3.10;;;;;;;14.55;73.33;101704.81;5050062;28;20116;-70
2022/08/02 04:08:08;;;;;;;7.43;3.03;;;;;;;14.56;73.49;101705.69;5051189;28;20095;-70
2022/08/02 04:13:19;;;;;;;6.90;3.50;;;;;;;14.63;74.48;101686.25;5036234;28;20044;-70
2022/08/02 04:15:48;;;;;;;5.82;3.05;;;;;;;14.63;74.63;101689.72;5050853;28;20024;-69
2022/08/02 04:18:15;;;;;;;10.15;3.80;;;;;;;14.60;73.83;101688.94;5050607;28;20021;-70
2022/08/02 04:20:43;;;;;;;6.65;3.30;;;;;;;14.61;75.01;101693.28;5050266;28;20029;-70
2022/08/02 04:23:13;;;;;;;5.60;3.22;;;;;;;14.58;74.74;101696.00;5049757;28;20464;-70
2022/08/02 04:25:40;;;;;;;6.57;3.67;;;;;;;14.60;75.29;101697.69;5036344;28;20023;-70
2022/08/02 04:28:06;;;;;;;9.13;3.47;;;;;;;14.56;75.02;101696.03;5050888;28;20036;-69
2022/08/02 04:30:32;;;;;;;4.75;3.20;;;;;;;14.57;75.47;101700.38;5050944;28;20032;-69
2022/08/02 04:32:57;;;;;;;5.72;3.53;;;;;;;14.60;75.64;101697.69;5047671;28;20033;-69
2022/08/02 04:35:23;;;;;;;5.13;3.63;;;;;;;14.63;75.40;101702.84;5050829;28;20036;-70
2022/08/02 04:37:49;;;;;;;9.27;4.30;;;;;;;14.68;75.66;101700.97;5050758;28;20453;-70
2022/08/02 04:40:14;;;;;;;7.68;4.13;;;;;;;14.72;75.58;101709.63;5049964;28;20476;-70
2022/08/02 04:42:40;;;;;;;9.38;3.85;;;;;;;14.80;76.13;101706.78;5046100;28;20029;-70
2022/08/02 04:45:06;;;;;;;7.43;4.07;;;;;;;14.80;76.23;101701.53;5049647;28;20032;-70
2022/08/02 04:47:32;;;;;;;7.38;4.15;;;;;;;14.86;76.32;101698.75;5053923;28;20111;-70
2022/08/02 04:49:57;;;;;;;9.95;4.18;;;;;;;14.92;76.16;101696.81;5054776;28;20147;-70
2022/08/02 04:52:23;;;;;;;9.65;4.03;;;;;;;14.95;76.25;101694.09;5053278;28;20029;-69
2022/08/02 04:54:50;;;;;;;7.63;4.20;;;;;;;14.95;76.15;101698.50;5052915;28;20476;-70
2022/08/02 04:59:59;;;;;;;9.10;4.18;;;;;;;15.01;77.24;101693.06;5054800;28;20040;-70
2022/08/02 05:02:24;;;;;;;10.75;4.80;;;;;;;14.97;77.67;101691.41;5052775;28;20028;-69
2022/08/02 05:04:50;;;;;;;10.05;4.88;;;;;;;14.99;78.09;101684.38;5052903;28;20484;-70
2022/08/02 05:07:15;;;;;;;9.65;5.07;;;;;;;15.00;78.60;101683.44;5054329;28;20067;-70
2022/08/02 05:09:41;;;;;;;11.48;4.55;;;;;;;15.08;78.63;101688.50;5053209;28;20051;-69
2022/08/02 05:12:06;;;;;;;13.43;5.20;;;;;;;15.13;79.34;101687.44;5051888;28;20052;-70
2022/08/02 05:14:32;;;;;;;12.30;5.90;;;;;;;15.18;78.51;101689.94;5053229;28;20037;-70
2022/08/02 05:16:57;;;;;;;9.55;6.03;;;;;;;15.30;78.41;101693.97;5053396;28;20028;-69
2022/08/02 05:19:22;;;;;;;10.38;6.10;;;;;;;15.39;78.27;101691.06;5053975;28;20029;-70
2022/08/02 05:21:48;;;;;;;11.10;6.60;;;;;;;15.46;78.11;101687.34;5051766;28;20096;-69
2022/08/02 05:24:13;;;;;;;9.20;5.72;;;;;;;15.56;78.86;101691.41;5052403;28;20037;-70
2022/08/02 05:26:38;;;;;;;9.45;6.03;;;;;;;15.57;78.59;101672.13;5053786;28;20029;-70
2022/08/02 05:29:04;;;;;;;10.40;5.80;;;;;;;15.70;78.26;101679.69;5051845;28;20036;-70
2022/08/02 05:31:30;;;;;;;9.20;6.15;;;;;;;15.76;78.31;101677.72;5054026;28;20032;-69
2022/08/02 05:33:55;;;;;;;10.52;6.40;;;;;;;15.81;79.08;101669.66;5053389;28;20025;-69
2022/08/02 05:36:20;;;;;;;10.50;6.47;;;;;;;15.86;79.22;101670.38;5052981;28;20480;-70
2022/08/02 05:38:46;;;;;;;9.60;6.82;;;;;;;15.96;78.79;101670.91;5052125;28;20034;-70
2022/08/02 05:41:11;;;;;;;11.20;7.35;;;;;;;16.07;79.63;101677.56;5041457;28;20044;-69
2022/08/02 05:43:36;;;;;;;12.40;6.95;;;;;;;16.18;79.34;101674.56;5051325;28;20468;-70
2022/08/02 05:46:01;;;;;;;10.93;7.00;;;;;;;16.25;78.94;101675.22;5049389;28;20107;-70
2022/08/02 05:48:27;;;;;;;10.70;6.90;;;;;;;16.36;78.50;101673.94;5049314;28;20037;-70
2022/08/02 05:51:02;;;;;;;11.07;7.00;;;;;;;16.45;78.92;101680.69;5049861;28;20057;-70
2022/08/02 05:53:38;;;;;;;14.52;7.70;;;;;;;16.55;78.08;101683.84;5046292;28;20047;-70
2022/08/02 05:56:17;;;;;;;13.48;6.75;;;;;;;16.67;77.63;101687.81;5048779;28;20028;-70
2022/08/02 05:58:51;;;;;;;11.82;7.25;;;;;;;16.79;78.52;101682.16;5049047;28;20060;-70
2022/08/02 06:01:26;;;;;;;9.05;6.55;;;;;;;16.92;78.16;101687.84;5051337;28;20037;-70
2022/08/02 06:03:54;;;;;;;11.45;7.18;;;;;;;16.99;78.91;101694.59;5052215;28;20024;-70
2022/08/02 06:06:24;;;;;;;10.50;6.85;;;;;;;16.98;78.61;101699.00;5052783;28;20476;-70
2022/08/02 06:08:54;;;;;;;9.05;6.95;;;;;;;17.04;78.68;101704.03;5051588;28;20047;-70
2022/08/02 06:11:21;;;;;;;9.48;6.93;;;;;;;17.14;78.83;101701.06;5051995;28;20055;-70
2022/08/02 06:13:46;;;;;;;11.93;7.32;;;;;;;17.18;78.89;101706.16;5052902;28;20056;-70
2022/08/02 06:16:15;;;;;;;11.35;7.63;;;;;;;17.32;78.05;101708.28;5052628;28;20102;-70
2022/08/02 06:18:41;;;;;;;9.65;6.78;;;;;;;17.50;78.05;101710.22;5051319;28;20477;-69
2022/08/02 06:21:09;;;;;;;12.07;6.90;;;;;;;17.57;77.92;101707.34;5050996;28;20033;-70
2022/08/02 06:23:40;;;;;;;12.23;7.22;;;;;;;17.51;78.03;101709.28;5051456;28;20025;-70
2022/08/02 06:26:07;;;;;;;11.50;6.88;;;;;;;17.39;79.43;101709.75;5051833;28;20024;-70
2022/08/02 06:28:36;;;;;;;11.30;7.80;;;;;;;17.37;78.69;101694.94;5050905;28;20036;-70
2022/08/02 06:31:02;;;;;;;9.60;7.75;;;;;;;17.42;79.13;101695.59;5051500;28;20604;-70
2022/08/02 06:33:27;;;;;;;12.82;8.18;;;;;;;17.41;79.11;101697.38;5050738;28;20484;-69
2022/08/02 06:35:59;;;;;;;15.25;8.18;;;;;;;17.44;78.90;101697.28;5051414;28;20025;-70
2022/08/02 06:38:26;;;;;;;12.98;8.85;;;;;;;17.47;78.98;101686.59;5051334;28;20112;-70
2022/08/02 06:41:02;;;;;;;12.20;9.20;;;;;;;17.57;78.07;101691.53;5050875;28;20459;-70
2022/08/02 06:43:37;;;;;;;11.77;7.93;;;;;;;17.66;78.91;101697.31;5050615;28;20037;-69
2022/08/02 06:46:02;;;;;;;13.68;9.27;;;;;;;17.76;77.75;101693.41;5037700;28;20024;-70
2022/08/02 06:48:29;;;;;;;14.23;9.05;;;;;;;17.83;78.00;101683.47;5052213;28;20028;-70
2022/08/02 06:50:54;;;;;;;13.65;9.10;;;;;;;17.92;79.33;101683.09;5051345;28;20047;-69
2022/08/02 06:53:20;;;;;;;14.88;9.63;;;;;;;17.99;79.85;101688.97;5050174;28;20480;-70
2022/08/02 06:55:45;;;;;;;14.57;10.77;;;;;;;18.10;79.29;101691.16;5051898;28;20060;-70
2022/08/02 06:58:12;;;;;;;15.00;10.48;;;;;;;18.18;78.90;101694.34;5052096;28;20057;-70
2022/08/02 07:00:37;;;;;;;17.73;11.82;;;;;;;18.26;78.36;101681.69;5050415;28;20476;-70
2022/08/02 07:03:04;;;;;;;15.73;9.80;;;;;;;18.33;78.07;101684.94;5051443;28;20104;-70
2022/08/02 07:05:29;;;;;;;16.23;10.77;;;;;;;18.42;79.65;101685.41;5052147;28;20074;-70
2022/08/02 07:07:56;;;;;;;15.88;9.30;;;;;;;18.56;78.66;101691.88;5050298;28;20057;-70
2022/08/02 07:10:21;;;;;;;18.73;11.05;;;;;;;18.66;80.40;101685.25;5050920;28;20132;-70
2022/08/02 07:12:46;;;;;;;16.30;11.38;;;;;;;18.77;78.10;101698.88;5051524;28;20614;-70
2022/08/02 07:15:12;;;;;;;16.05;10.75;;;;;;;18.91;79.01;101696.47;5050735;28;20022;-70
2022/08/02 07:17:38;;;;;;;19.38;11.10;;;;;;;19.03;78.36;101694.19;5051834;28;20559;-70
2022/08/02 07:20:04;;;;;;;15.32;10.13;;;;;;;19.14;78.69;101684.00;5051939;28;20380;-70
2022/08/02 07:22:29;;;;;;;14.70;9.57;;;;;;;19.20;78.05;101691.66;5050185;28;20029;-70
2022/08/02 07:24:57;;;;;;;13.77;9.05;;;;;;;19.22;78.04;101673.94;5051348;28;20108;-70
2022/08/02 07:27:23;;;;;;;14.25;9.20;;;;;;;19.25;77.04;101663.22;5051536;28;20049;-70
2022/08/02 07:29:49;;;;;;;13.95;8.38;;;;;;;19.29;77.67;101670.09;5050623;28;20090;-70
2022/08/02 07:32:16;;;;;;;12.32;8.05;;;;;;;19.20;78.27;101657.31;5049088;28;20021;-70
2022/08/02 07:34:42;;;;;;;10.05;8.18;;;;;;;19.24;77.75;101664.16;5049218;28;22682;-70
2022/08/02 07:37:09;;;;;;;10.68;7.45;;;;;;;19.30;76.66;101671.81;5047818;28;20135;-70
2022/08/02 07:39:34;;;;;;;14.32;8.45;;;;;;;19.36;76.44;101663.59;5047886;28;20116;-70
2022/08/02 07:41:59;;;;;;;10.00;7.20;;;;;;;19.45;76.57;101662.28;5049849;28;20092;-69
2022/08/02 07:44:25;;;;;;;10.50;7.68;;;;;;;19.59;75.84;101662.50;5050242;28;20443;-70
2022/08/02 07:46:50;;;;;;;10.60;7.30;;;;;;;19.66;75.66;101667.53;5049158;28;20025;-70
2022/08/02 07:49:17;;;;;;;11.07;6.20;;;;;;;19.78;76.32;101673.06;5050279;28;20025;-70
2022/08/02 07:51:44;;;;;;;13.90;7.25;;;;;;;19.95;73.87;101668.75;5052529;28;20073;-70
2022/08/02 07:54:09;;;;;;;8.95;6.15;;;;;;;20.08;73.57;101675.97;5047705;28;20373;-72
2022/08/02 07:56:34;;;;;;;9.55;5.47;;;;;;;20.18;73.97;101672.88;5045611;28;20027;-72
2022/08/02 07:58:59;;;;;;;10.02;6.05;;;;;;;20.32;74.62;101678.31;5050399;28;20032;-72
2022/08/02 08:01:25;;;;;;;7.82;5.90;;;;;;;20.50;73.97;101674.75;5051301;28;20484;-72
2022/08/02 08:03:50;;;;;;;7.35;5.65;;;;;;;20.62;72.18;101677.69;5049001;28;20057;-72
2022/08/02 08:06:15;;;;;;;6.85;5.20;;;;;;;20.70;71.59;101668.44;5047469;28;20029;-72
2022/08/02 08:08:41;;;;;;;6.88;4.50;;;;;;;20.80;70.83;101668.78;5043200;28;20021;-72
2022/08/02 08:11:06;;;;;;;8.40;4.80;;;;;;;20.92;69.62;101670.75;5049727;28;20045;-72
2022/08/02 08:13:31;;;;;;;8.80;4.60;;;;;;;20.98;67.57;101674.88;5051122;28;20078;-72
2022/08/02 08:15:56;;;;;;;6.85;3.60;;;;;;;20.97;67.63;101670.53;5050608;28;20029;-72
2022/08/02 08:18:22;;;;;;;5.97;3.47;;;;;;;20.89;68.61;101668.28;5045385;28;20029;-73
2022/08/02 08:20:47;;;;;;;7.38;4.20;;;;;;;20.91;67.64;101671.72;5052435;28;20075;-72
2022/08/02 08:23:12;;;;;;;6.75;3.90;;;;;;;20.99;67.27;101677.47;5054370;28;20068;-72
2022/08/02 08:25:38;;;;;;;6.68;3.58;;;;;;;21.11;68.88;101667.97;5053559;28;20032;-72
2022/08/02 08:28:04;;;;;;;4.78;3.28;;;;;;;21.22;65.31;101673.56;5051670;28;20068;-72
2022/08/02 08:30:29;;;;;;;4.38;3.00;;;;;;;21.41;66.92;101669.91;5053129;28;20465;-72
2022/08/02 08:32:54;;;;;;;5.57;3.08;;;;;;;21.68;64.55;101657.75;5054005;28;20087;-72
2022/08/02 08:35:19;;;;;;;8.07;2.75;;;;;;;21.91;64.46;101659.09;5054766;28;20118;-71
2022/08/02 08:37:45;;;;;;;7.68;2.70;;;;;;;22.06;63.74;101654.66;5052399;28;20515;-71
2022/08/02 08:40:11;;;;;;;4.10;2.72;;;;;;;22.09;61.15;101653.63;5051609;28;20472;-71
2022/08/02 08:42:38;;;;;;;4.97;2.83;;;;;;;22.11;62.85;101657.91;5052807;28;20092;-72
2022/08/02 08:45:04;;;;;;;3.25;2.90;;;;;;;22.25;60.85;101653.59;5054917;28;20029;-72
2022/08/02 08:47:34;;;;;;;5.53;2.35;;;;;;;22.32;61.10;101655.81;5051834;28;20074;-72
2022/08/02 08:50:17;;;;;;;3.20;2.30;;;;;;;22.40;59.74;101665.97;5052116;28;20032;-72
2022/08/02 08:52:48;;;;;;;4.57;2.63;;;;;;;22.48;59.36;101670.81;5052617;28;20476;-71
2022/08/02 08:55:14;;;;;;;6.07;2.30;;;;;;;22.52;58.66;101665.22;5053051;28;20322;-71
2022/08/02 08:57:43;;;;;;;5.43;2.75;;;;;;;22.53;59.54;101666.94;5053613;28;20021;-72
2022/08/02 09:00:15;;;;;;;2.90;2.53;;;;;;;22.53;60.06;101663.41;5053544;28;20033;-72
2022/08/02 09:02:42;;;;;;;3.90;2.50;;;;;;;22.58;57.35;101656.88;5052406;28;20071;-72
2022/08/02 09:05:12;;;;;;;3.03;2.53;;;;;;;22.53;58.64;101658.09;5051799;28;20094;-71
2022/08/02 09:07:40;;;;;;;2.90;2.45;;;;;;;22.52;58.23;101659.06;5052466;28;20039;-72
2022/08/02 09:10:32;;;;;;;4.45;2.17;;;;;;;22.56;59.48;101672.09;5053931;28;20060;-72
2022/08/02 09:13:23;;;;;;;2.63;2.17;;;;;;;22.62;58.04;101668.16;5052810;28;20041;-72
2022/08/02 09:15:55;;;;;;;8.15;2.20;;;;;;;22.58;55.52;101659.53;5053049;28;20040;-72
2022/08/02 09:18:31;;;;;;;4.03;2.15;;;;;;;22.72;55.28;101652.53;5054080;28;20049;-72
2022/08/02 09:21:02;;;;;;;4.10;2.15;;;;;;;22.84;54.51;101652.63;5052485;28;20053;-72
2022/08/02 09:23:48;;;;;;;3.70;2.30;;;;;;;23.10;56.81;101650.16;5052310;28;20032;-72
2022/08/02 09:26:17;;;;;;;5.55;2.42;;;;;;;23.29;52.42;101647.19;5056020;28;20028;-72
2022/08/02 09:28:46;;;;;;;3.28;2.30;;;;;;;23.47;50.09;101650.44;5055431;28;20025;-72
2022/08/02 09:31:17;;;;;;;4.10;1.90;;;;;;;23.55;49.81;101656.16;5053183;28;20025;-72
2022/08/02 09:33:45;;;;;;;3.55;1.73;;;;;;;23.64;46.95;101654.66;5051801;28;20357;-72
2022/08/02 09:36:11;;;;;;;2.95;1.80;;;;;;;;;;5051760;28;20388;-72
2022/08/02 09:38:38;;;;;;;3.10;1.77;;;;;;;23.82;47.04;101653.50;5053546;28;20024;-72
2022/08/02 09:41:05;;;;;;;2.75;2.08;;;;;;;23.86;48.07;101652.31;5047840;28;20036;-72
2022/08/02 09:43:36;;;;;;;4.30;2.00;;;;;;;23.92;48.17;101651.91;5051607;28;20453;-72
2022/08/02 09:46:11;;;;;;;6.10;1.80;;;;;;;24.04;48.28;101659.09;5039729;28;20025;-72
2022/08/02 09:48:51;;;;;;;4.65;1.80;;;;;;;24.12;47.49;101644.41;5053500;28;20081;-72
2022/08/02 09:51:23;;;;;;;3.83;1.98;;;;;;;24.21;47.28;101649.13;5044416;28;20040;-72
2022/08/02 09:53:50;;;;;;;2.45;1.73;;;;;;;24.29;44.07;101662.75;5053172;28;20025;-72
2022/08/02 09:56:17;;;;;;;3.67;2.00;;;;;;;24.31;46.04;101660.84;5052638;28;20112;-72
2022/08/02 09:58:43;;;;;;;3.17;1.85;;;;;;;24.43;45.09;101662.72;5059347;28;20028;-72
2022/08/02 10:01:08;;;;;;;4.32;1.75;;;;;;;24.52;43.18;101653.19;5050415;28;20154;-72
2022/08/02 10:03:34;;;;;;;5.35;1.80;;;;;;;24.47;44.50;101656.19;5050273;28;20025;-73
2022/08/02 10:06:00;;;;;;;4.70;1.60;;;;;;;24.67;46.08;101662.81;5052924;28;20033;-72
2022/08/02 10:08:27;;;;;;;4.40;1.90;;;;;;;24.72;44.47;101655.34;5050491;28;20025;-72
2022/08/02 10:10:59;;;;;;;2.20;1.60;;;;;;;24.90;46.14;101655.84;5051388;28;20047;-72
2022/08/02 10:13:27;;;;;;;2.97;1.63;;;;;;;25.02;43.41;101656.78;5052393;28;20037;-72
2022/08/02 10:15:54;;;;;;;2.33;1.63;;;;;;;25.17;40.72;101647.69;5049890;28;20021;-72
2022/08/02 10:18:20;;;;;;;3.13;1.58;;;;;;;25.33;43.03;101651.94;5050346;28;20393;-73
2022/08/02 10:20:48;;;;;;;4.40;1.67;;;;;;;25.57;42.18;101649.25;5050738;28;20033;-70
2022/08/02 10:23:15;;;;;;;2.92;1.50;;;;;;;25.74;42.44;101640.88;5051014;28;20456;-70
2022/08/02 10:25:41;;;;;;;2.33;1.48;;;;;;;25.88;40.78;101643.38;5051952;28;20058;-70
2022/08/02 10:28:08;;;;;;;4.18;1.70;;;;;;;26.11;39.53;101635.44;5052377;28;20514;-70
2022/08/02 10:30:39;;;;;;;2.25;1.50;;;;;;;26.32;40.59;101633.78;5051869;28;20017;-70
2022/08/02 10:33:07;;;;;;;2.78;1.40;;;;;;;26.59;38.50;101636.16;5051658;28;20025;-70
2022/08/02 10:35:36;;;;;;;1.58;1.48;;;;;;;26.98;38.57;101627.75;5052576;28;20111;-70
2022/08/02 10:38:06;;;;;;;4.75;1.60;;;;;;;27.42;37.54;101623.31;5052139;28;20029;-70
2022/08/02 10:40:52;;;;;;;4.80;1.40;;;;;;;27.65;38.18;101635.63;5052651;28;20021;-70
2022/08/02 10:43:35;;;;;;;4.00;1.45;;;;;;;27.48;37.98;101629.00;5051654;28;20041;-70
2022/08/02 10:46:20;;;;;;;2.92;1.60;;;;;;;27.31;37.80;101624.19;5051546;28;20469;-70
2022/08/02 10:49:07;;;;;;;2.40;1.60;;;;;;;27.10;37.74;101624.06;5049416;28;20043;-70
2022/08/02 10:52:00;;;;;;;2.83;1.50;;;;;;;26.82;39.97;101637.00;5043184;28;20090;-70
2022/08/02 10:55:02;;;;;;;3.63;1.77;;;;;;;26.57;39.89;101637.25;5050076;28;20037;-71
2022/08/02 10:57:30;;;;;;;5.03;1.60;;;;;;;26.54;40.45;101630.31;5025034;28;20389;-74
2022/08/02 11:00:11;;;;;;;4.90;1.40;;;;;;;26.67;38.73;101629.34;5047099;28;20035;-74
2022/08/02 11:02:45;;;;;;;2.17;1.42;;;;;;;26.87;37.63;101633.09;5052111;28;20387;-74
2022/08/02 11:05:17;;;;;;;7.50;1.40;;;;;;;27.04;39.00;101620.09;5050209;28;20611;-73
2022/08/02 11:07:47;;;;;;;3.25;1.60;;;;;;;27.30;38.01;101620.69;5049348;28;20029;-73
2022/08/02 11:10:25;;;;;;;2.92;1.48;;;;;;;27.51;37.77;101627.91;5051740;28;20037;-73
2022/08/02 11:13:12;;;;;;;6.82;1.60;;;;;;;27.64;37.67;101631.25;5051091;28;20041;-73
2022/08/02 11:16:01;;;;;;;3.03;1.45;;;;;;;27.74;38.03;101624.16;5052046;28;20037;-73
2022/08/02 11:18:45;;;;;;;2.17;1.70;;;;;;;27.99;36.96;101622.09;5038894;28;20029;-73
2022/08/02 11:21:25;;;;;;;3.13;2.08;;;;;;;28.29;37.16;101623.16;5050696;28;20021;-74
2022/08/02 11:23:51;;;;;;;6.63;1.60;;;;;;;28.45;34.55;101620.88;5051418;28;20361;-74
2022/08/02 11:26:31;;;;;;;2.47;1.38;;;;;;;28.72;35.10;101622.97;5051348;28;20376;-74
2022/08/02 11:28:59;;;;;;;2.83;1.30;;;;;;;28.90;32.67;101620.47;5049845;28;20032;-74
2022/08/02 11:31:25;;;;;;;1.75;1.20;;;;;;;29.16;32.89;101610.97;5047313;28;20029;-74
2022/08/02 11:33:51;;;;;;;2.58;1.50;;;;;;;29.25;31.44;101613.81;5044942;28;20094;-74
2022/08/02 11:36:17;;;;;;;1.67;1.40;;;;;;;29.12;32.46;101617.59;5050275;28;20021;-75